sensor_id;sensor_type;location;lat;lon;timestamp;P1;durP1;ratioP1;P2;durP2;ratioP2
52266;SDS011;38223;50.940;4.034;2023-02-17T00:01:54;2.27;;;2.08;;
52266;SDS011;38223;50.940;4.034;2023-02-17T00:04:30;2.00;;;1.80;;
52266;SDS011;38223;50.940;4.034;2023-02-17T00:07:02;2.60;;;2.40;;
52266;SDS011;38223;50.940;4.034;2023-02-17T00:09:35;3.42;;;2.12;;
52266;SDS011;38223;50.940;4.034;2023-02-17T00:12:28;2.75;;;2.40;;
52266;SDS011;38223;50.940;4.034;2023-02-17T00:14:56;2.30;;;2.17;;
52266;SDS011;38223;50.940;4.034;2023-02-17T00:17:23;3.42;;;2.50;;
52266;SDS011;38223;50.940;4.034;2023-02-17T00:19:57;2.50;;;2.30;;
52266;SDS011;38223;50.940;4.034;2023-02-17T00:22:38;2.60;;;2.40;;
52266;SDS011;38223;50.940;4.034;2023-02-17T00:25:08;2.90;;;2.70;;
52266;SDS011;38223;50.940;4.034;2023-02-17T00:27:39;2.77;;;2.58;;
52266;SDS011;38223;50.940;4.034;2023-02-17T00:30:11;3.42;;;3.00;;
52266;SDS011;38223;50.940;4.034;2023-02-17T00:33:01;3.22;;;3.00;;
52266;SDS011;38223;50.940;4.034;2023-02-17T00:35:28;3.67;;;3.20;;
52266;SDS011;38223;50.940;4.034;2023-02-17T00:37:56;3.60;;;2.92;;
52266;SDS011;38223;50.940;4.034;2023-02-17T00:40:31;3.42;;;3.12;;
52266;SDS011;38223;50.940;4.034;2023-02-17T00:43:02;4.37;;;2.92;;
52266;SDS011;38223;50.940;4.034;2023-02-17T00:45:36;2.50;;;2.30;;
52266;SDS011;38223;50.940;4.034;2023-02-17T00:48:24;3.00;;;2.15;;
52266;SDS011;38223;50.940;4.034;2023-02-17T00:50:57;2.92;;;2.72;;
52266;SDS011;38223;50.940;4.034;2023-02-17T00:53:30;3.30;;;2.77;;
52266;SDS011;38223;50.940;4.034;2023-02-17T00:56:01;2.55;;;2.35;;
52266;SDS011;38223;50.940;4.034;2023-02-17T00:58:32;4.10;;;2.77;;
52266;SDS011;38223;50.940;4.034;2023-02-17T01:01:07;4.12;;;2.50;;
52266;SDS011;38223;50.940;4.034;2023-02-17T01:03:40;3.22;;;2.92;;
52266;SDS011;38223;50.940;4.034;2023-02-17T01:06:30;3.45;;;2.95;;
52266;SDS011;38223;50.940;4.034;2023-02-17T01:08:47;3.55;;;3.08;;
52266;SDS011;38223;50.940;4.034;2023-02-17T01:11:20;4.50;;;2.87;;
52266;SDS011;38223;50.940;4.034;2023-02-17T01:13:52;3.80;;;3.50;;
52266;SDS011;38223;50.940;4.034;2023-02-17T01:16:26;3.25;;;2.95;;
52266;SDS011;38223;50.940;4.034;2023-02-17T01:18:58;4.28;;;3.42;;
52266;SDS011;38223;50.940;4.034;2023-02-17T01:21:34;4.00;;;3.70;;
52266;SDS011;38223;50.940;4.034;2023-02-17T01:24:09;5.03;;;4.00;;
52266;SDS011;38223;50.940;4.034;2023-02-17T01:26:40;4.92;;;3.72;;
52266;SDS011;38223;50.940;4.034;2023-02-17T01:29:10;4.85;;;4.00;;
52266;SDS011;38223;50.940;4.034;2023-02-17T01:31:39;4.50;;;4.10;;
52266;SDS011;38223;50.940;4.034;2023-02-17T01:34:11;4.70;;;4.30;;
52266;SDS011;38223;50.940;4.034;2023-02-17T01:36:38;4.75;;;4.25;;
52266;SDS011;38223;50.940;4.034;2023-02-17T01:39:07;5.30;;;4.47;;
52266;SDS011;38223;50.940;4.034;2023-02-17T01:41:39;5.15;;;4.62;;
52266;SDS011;38223;50.940;4.034;2023-02-17T01:44:21;4.92;;;4.05;;
52266;SDS011;38223;50.940;4.034;2023-02-17T01:46:53;3.08;;;2.77;;
52266;SDS011;38223;50.940;4.034;2023-02-17T01:49:42;2.60;;;2.40;;
52266;SDS011;38223;50.940;4.034;2023-02-17T01:52:16;3.72;;;2.52;;
52266;SDS011;38223;50.940;4.034;2023-02-17T01:54:58;2.80;;;2.50;;
52266;SDS011;38223;50.940;4.034;2023-02-17T01:57:30;3.72;;;2.50;;
52266;SDS011;38223;50.940;4.034;2023-02-17T02:00:04;3.20;;;2.90;;
52266;SDS011;38223;50.940;4.034;2023-02-17T02:02:38;2.17;;;1.98;;
52266;SDS011;38223;50.940;4.034;2023-02-17T02:05:15;2.65;;;2.00;;
52266;SDS011;38223;50.940;4.034;2023-02-17T02:07:45;2.00;;;1.77;;
52266;SDS011;38223;50.940;4.034;2023-02-17T02:10:20;2.62;;;1.90;;
52266;SDS011;38223;50.940;4.034;2023-02-17T02:12:51;2.05;;;1.85;;
52266;SDS011;38223;50.940;4.034;2023-02-17T02:15:22;3.05;;;2.10;;
52266;SDS011;38223;50.940;4.034;2023-02-17T02:24:01;2.67;;;2.33;;
52266;SDS011;38223;50.940;4.034;2023-02-17T02:29:33;3.27;;;2.62;;
52266;SDS011;38223;50.940;4.034;2023-02-17T02:32:28;2.58;;;2.33;;
52266;SDS011;38223;50.940;4.034;2023-02-17T02:35:12;3.65;;;2.80;;
52266;SDS011;38223;50.940;4.034;2023-02-17T02:37:51;4.60;;;2.67;;
52266;SDS011;38223;50.940;4.034;2023-02-17T02:40:30;4.08;;;2.42;;
52266;SDS011;38223;50.940;4.034;2023-02-17T02:43:02;4.85;;;2.50;;
52266;SDS011;38223;50.940;4.034;2023-02-17T02:45:31;2.65;;;2.42;;
52266;SDS011;38223;50.940;4.034;2023-02-17T02:48:00;4.08;;;3.27;;
52266;SDS011;38223;50.940;4.034;2023-02-17T02:53:40;4.63;;;3.17;;
52266;SDS011;38223;50.940;4.034;2023-02-17T03:02:13;4.72;;;3.80;;
52266;SDS011;38223;50.940;4.034;2023-02-17T03:08:02;5.72;;;3.90;;
52266;SDS011;38223;50.940;4.034;2023-02-17T03:10:34;4.03;;;3.47;;
52266;SDS011;38223;50.940;4.034;2023-02-17T03:13:09;5.45;;;4.28;;
52266;SDS011;38223;50.940;4.034;2023-02-17T03:15:41;5.53;;;4.00;;
52266;SDS011;38223;50.940;4.034;2023-02-17T03:18:11;5.15;;;4.42;;
52266;SDS011;38223;50.940;4.034;2023-02-17T03:20:48;4.95;;;4.40;;
52266;SDS011;38223;50.940;4.034;2023-02-17T03:23:21;7.00;;;4.35;;
52266;SDS011;38223;50.940;4.034;2023-02-17T03:25:56;6.33;;;4.42;;
52266;SDS011;38223;50.940;4.034;2023-02-17T03:28:25;4.85;;;4.35;;
52266;SDS011;38223;50.940;4.034;2023-02-17T03:31:00;7.95;;;4.67;;
52266;SDS011;38223;50.940;4.034;2023-02-17T03:33:33;7.00;;;4.72;;
52266;SDS011;38223;50.940;4.034;2023-02-17T03:36:03;6.00;;;4.60;;
52266;SDS011;38223;50.940;4.034;2023-02-17T03:38:38;6.97;;;4.80;;
52266;SDS011;38223;50.940;4.034;2023-02-17T03:41:09;6.10;;;4.62;;
52266;SDS011;38223;50.940;4.034;2023-02-17T03:43:37;5.67;;;4.60;;
52266;SDS011;38223;50.940;4.034;2023-02-17T03:46:11;7.35;;;4.60;;
52266;SDS011;38223;50.940;4.034;2023-02-17T03:48:44;6.40;;;4.80;;
52266;SDS011;38223;50.940;4.034;2023-02-17T03:51:16;9.48;;;4.95;;
52266;SDS011;38223;50.940;4.034;2023-02-17T03:53:50;5.70;;;4.53;;
52266;SDS011;38223;50.940;4.034;2023-02-17T03:56:22;5.50;;;4.50;;
52266;SDS011;38223;50.940;4.034;2023-02-17T03:58:58;7.72;;;5.15;;
52266;SDS011;38223;50.940;4.034;2023-02-17T04:01:28;6.95;;;5.10;;
52266;SDS011;38223;50.940;4.034;2023-02-17T04:04:02;7.78;;;4.65;;
52266;SDS011;38223;50.940;4.034;2023-02-17T04:06:36;6.17;;;4.83;;
52266;SDS011;38223;50.940;4.034;2023-02-17T04:09:11;6.75;;;4.72;;
52266;SDS011;38223;50.940;4.034;2023-02-17T04:11:43;7.70;;;4.67;;
52266;SDS011;38223;50.940;4.034;2023-02-17T04:14:15;5.47;;;4.70;;
52266;SDS011;38223;50.940;4.034;2023-02-17T04:16:47;5.40;;;4.87;;
52266;SDS011;38223;50.940;4.034;2023-02-17T04:19:23;8.53;;;5.30;;
52266;SDS011;38223;50.940;4.034;2023-02-17T04:21:55;10.25;;;5.90;;
52266;SDS011;38223;50.940;4.034;2023-02-17T04:24:28;7.17;;;5.62;;
52266;SDS011;38223;50.940;4.034;2023-02-17T04:27:03;8.88;;;5.37;;
52266;SDS011;38223;50.940;4.034;2023-02-17T04:29:36;10.13;;;5.90;;
52266;SDS011;38223;50.940;4.034;2023-02-17T04:32:07;6.50;;;5.35;;
52266;SDS011;38223;50.940;4.034;2023-02-17T04:34:37;6.47;;;5.10;;
52266;SDS011;38223;50.940;4.034;2023-02-17T04:37:09;7.25;;;5.35;;
52266;SDS011;38223;50.940;4.034;2023-02-17T04:39:38;6.45;;;5.28;;
52266;SDS011;38223;50.940;4.034;2023-02-17T04:42:05;8.25;;;5.20;;
52266;SDS011;38223;50.940;4.034;2023-02-17T04:44:33;5.67;;;5.10;;
52266;SDS011;38223;50.940;4.034;2023-02-17T04:47:00;6.17;;;5.17;;
52266;SDS011;38223;50.940;4.034;2023-02-17T04:49:28;6.05;;;5.25;;
52266;SDS011;38223;50.940;4.034;2023-02-17T04:51:57;7.35;;;5.60;;
52266;SDS011;38223;50.940;4.034;2023-02-17T04:54:26;6.47;;;5.12;;
52266;SDS011;38223;50.940;4.034;2023-02-17T04:57:00;7.58;;;5.50;;
52266;SDS011;38223;50.940;4.034;2023-02-17T04:59:27;6.17;;;5.37;;
52266;SDS011;38223;50.940;4.034;2023-02-17T05:01:55;5.60;;;5.10;;
52266;SDS011;38223;50.940;4.034;2023-02-17T05:04:24;6.75;;;5.80;;
52266;SDS011;38223;50.940;4.034;2023-02-17T05:06:52;6.55;;;5.90;;
52266;SDS011;38223;50.940;4.034;2023-02-17T05:09:24;10.23;;;5.50;;
52266;SDS011;38223;50.940;4.034;2023-02-17T05:11:55;11.28;;;5.97;;
52266;SDS011;38223;50.940;4.034;2023-02-17T05:14:28;11.00;;;5.60;;
52266;SDS011;38223;50.940;4.034;2023-02-17T05:16:59;6.08;;;5.47;;
52266;SDS011;38223;50.940;4.034;2023-02-17T05:19:32;9.00;;;6.15;;
52266;SDS011;38223;50.940;4.034;2023-02-17T05:22:03;8.90;;;6.05;;
52266;SDS011;38223;50.940;4.034;2023-02-17T05:24:38;7.92;;;6.17;;
52266;SDS011;38223;50.940;4.034;2023-02-17T05:27:06;9.88;;;6.37;;
52266;SDS011;38223;50.940;4.034;2023-02-17T05:29:34;6.78;;;6.12;;
52266;SDS011;38223;50.940;4.034;2023-02-17T05:32:02;8.80;;;5.33;;
52266;SDS011;38223;50.940;4.034;2023-02-17T05:34:32;9.88;;;5.85;;
52266;SDS011;38223;50.940;4.034;2023-02-17T05:37:01;7.00;;;6.37;;
52266;SDS011;38223;50.940;4.034;2023-02-17T05:39:32;7.12;;;5.80;;
52266;SDS011;38223;50.940;4.034;2023-02-17T05:42:04;6.42;;;5.53;;
52266;SDS011;38223;50.940;4.034;2023-02-17T05:44:34;8.50;;;5.63;;
52266;SDS011;38223;50.940;4.034;2023-02-17T05:47:05;6.40;;;5.80;;
52266;SDS011;38223;50.940;4.034;2023-02-17T05:49:33;6.35;;;5.75;;
52266;SDS011;38223;50.940;4.034;2023-02-17T05:52:02;6.58;;;5.58;;
52266;SDS011;38223;50.940;4.034;2023-02-17T05:54:36;6.45;;;5.95;;
52266;SDS011;38223;50.940;4.034;2023-02-17T05:57:09;6.45;;;5.85;;
52266;SDS011;38223;50.940;4.034;2023-02-17T05:59:41;6.37;;;5.75;;
52266;SDS011;38223;50.940;4.034;2023-02-17T06:02:10;6.47;;;5.87;;
52266;SDS011;38223;50.940;4.034;2023-02-17T06:04:41;6.25;;;5.65;;
52266;SDS011;38223;50.940;4.034;2023-02-17T06:07:10;5.97;;;5.47;;
52266;SDS011;38223;50.940;4.034;2023-02-17T06:09:42;5.83;;;5.33;;
52266;SDS011;38223;50.940;4.034;2023-02-17T06:12:14;10.53;;;5.80;;
52266;SDS011;38223;50.940;4.034;2023-02-17T06:14:46;6.10;;;5.60;;
52266;SDS011;38223;50.940;4.034;2023-02-17T06:17:19;5.85;;;5.45;;
52266;SDS011;38223;50.940;4.034;2023-02-17T06:19:51;5.62;;;5.15;;
52266;SDS011;38223;50.940;4.034;2023-02-17T06:22:20;5.90;;;5.50;;
52266;SDS011;38223;50.940;4.034;2023-02-17T06:24:47;6.20;;;5.45;;
52266;SDS011;38223;50.940;4.034;2023-02-17T06:27:18;6.10;;;5.60;;
52266;SDS011;38223;50.940;4.034;2023-02-17T06:29:51;6.62;;;5.40;;
52266;SDS011;38223;50.940;4.034;2023-02-17T06:32:21;5.47;;;5.08;;
52266;SDS011;38223;50.940;4.034;2023-02-17T06:34:54;5.42;;;4.97;;
52266;SDS011;38223;50.940;4.034;2023-02-17T06:37:24;5.83;;;5.42;;
52266;SDS011;38223;50.940;4.034;2023-02-17T06:39:54;6.10;;;5.60;;
52266;SDS011;38223;50.940;4.034;2023-02-17T06:42:24;6.03;;;5.20;;
52266;SDS011;38223;50.940;4.034;2023-02-17T06:44:55;5.75;;;5.30;;
52266;SDS011;38223;50.940;4.034;2023-02-17T06:47:26;6.05;;;5.12;;
52266;SDS011;38223;50.940;4.034;2023-02-17T06:50:01;5.00;;;4.60;;
52266;SDS011;38223;50.940;4.034;2023-02-17T06:52:30;5.40;;;5.00;;
52266;SDS011;38223;50.940;4.034;2023-02-17T06:55:00;5.47;;;4.97;;
52266;SDS011;38223;50.940;4.034;2023-02-17T06:57:28;5.60;;;5.20;;
52266;SDS011;38223;50.940;4.034;2023-02-17T06:59:56;5.62;;;5.12;;
52266;SDS011;38223;50.940;4.034;2023-02-17T07:02:23;5.60;;;5.10;;
52266;SDS011;38223;50.940;4.034;2023-02-17T07:04:53;5.50;;;5.10;;
52266;SDS011;38223;50.940;4.034;2023-02-17T07:07:22;5.45;;;4.90;;
52266;SDS011;38223;50.940;4.034;2023-02-17T07:09:50;5.78;;;5.25;;
52266;SDS011;38223;50.940;4.034;2023-02-17T07:12:18;5.47;;;4.97;;
52266;SDS011;38223;50.940;4.034;2023-02-17T07:14:45;6.35;;;4.17;;
52266;SDS011;38223;50.940;4.034;2023-02-17T07:17:13;4.72;;;4.33;;
52266;SDS011;38223;50.940;4.034;2023-02-17T07:19:44;5.33;;;4.83;;
52266;SDS011;38223;50.940;4.034;2023-02-17T07:22:16;5.30;;;4.90;;
52266;SDS011;38223;50.940;4.034;2023-02-17T07:24:45;5.50;;;5.00;;
52266;SDS011;38223;50.940;4.034;2023-02-17T07:27:16;4.75;;;4.35;;
52266;SDS011;38223;50.940;4.034;2023-02-17T07:29:50;5.70;;;5.30;;
52266;SDS011;38223;50.940;4.034;2023-02-17T07:32:19;4.40;;;4.10;;
52266;SDS011;38223;50.940;4.034;2023-02-17T07:34:47;4.97;;;4.58;;
52266;SDS011;38223;50.940;4.034;2023-02-17T07:37:15;4.50;;;4.20;;
52266;SDS011;38223;50.940;4.034;2023-02-17T07:39:45;5.45;;;4.72;;
52266;SDS011;38223;50.940;4.034;2023-02-17T07:42:14;4.80;;;4.35;;
52266;SDS011;38223;50.940;4.034;2023-02-17T07:44:42;4.45;;;4.15;;
52266;SDS011;38223;50.940;4.034;2023-02-17T07:47:10;3.95;;;3.55;;
52266;SDS011;38223;50.940;4.034;2023-02-17T07:49:37;3.92;;;3.62;;
52266;SDS011;38223;50.940;4.034;2023-02-17T07:52:07;3.58;;;3.02;;
52266;SDS011;38223;50.940;4.034;2023-02-17T07:54:34;3.40;;;3.20;;
52266;SDS011;38223;50.940;4.034;2023-02-17T07:57:02;2.58;;;2.40;;
52266;SDS011;38223;50.940;4.034;2023-02-17T07:59:34;2.27;;;2.17;;
52266;SDS011;38223;50.940;4.034;2023-02-17T08:02:04;2.25;;;2.05;;
52266;SDS011;38223;50.940;4.034;2023-02-17T08:04:37;2.17;;;1.98;;
52266;SDS011;38223;50.940;4.034;2023-02-17T08:07:06;1.97;;;1.77;;
52266;SDS011;38223;50.940;4.034;2023-02-17T08:09:41;1.98;;;1.72;;
52266;SDS011;38223;50.940;4.034;2023-02-17T08:12:26;2.00;;;1.72;;
52266;SDS011;38223;50.940;4.034;2023-02-17T08:15:15;2.55;;;1.30;;
52266;SDS011;38223;50.940;4.034;2023-02-17T08:17:44;1.50;;;1.40;;
52266;SDS011;38223;50.940;4.034;2023-02-17T08:20:17;1.50;;;1.25;;
52266;SDS011;38223;50.940;4.034;2023-02-17T08:22:45;1.52;;;1.42;;
52266;SDS011;38223;50.940;4.034;2023-02-17T08:25:17;1.52;;;1.42;;
52266;SDS011;38223;50.940;4.034;2023-02-17T08:27:49;2.27;;;1.20;;
52266;SDS011;38223;50.940;4.034;2023-02-17T08:30:18;1.40;;;1.30;;
52266;SDS011;38223;50.940;4.034;2023-02-17T08:32:47;1.35;;;1.25;;
52266;SDS011;38223;50.940;4.034;2023-02-17T08:35:21;1.30;;;1.20;;
52266;SDS011;38223;50.940;4.034;2023-02-17T08:37:50;1.25;;;1.15;;
52266;SDS011;38223;50.940;4.034;2023-02-17T08:40:20;1.95;;;1.00;;
52266;SDS011;38223;50.940;4.034;2023-02-17T08:42:54;2.42;;;0.98;;
52266;SDS011;38223;50.940;4.034;2023-02-17T08:45:22;0.90;;;0.90;;
52266;SDS011;38223;50.940;4.034;2023-02-17T08:47:56;1.07;;;0.90;;
52266;SDS011;38223;50.940;4.034;2023-02-17T08:50:28;0.88;;;0.82;;
52266;SDS011;38223;50.940;4.034;2023-02-17T08:52:58;2.92;;;0.93;;
52266;SDS011;38223;50.940;4.034;2023-02-17T08:55:26;1.35;;;1.25;;
52266;SDS011;38223;50.940;4.034;2023-02-17T08:58:02;1.30;;;0.88;;
52266;SDS011;38223;50.940;4.034;2023-02-17T09:00:38;1.22;;;0.88;;
52266;SDS011;38223;50.940;4.034;2023-02-17T09:03:10;0.90;;;0.80;;
52266;SDS011;38223;50.940;4.034;2023-02-17T09:05:42;1.20;;;0.80;;
52266;SDS011;38223;50.940;4.034;2023-02-17T09:08:13;3.22;;;1.02;;
52266;SDS011;38223;50.940;4.034;2023-02-17T09:10:44;1.52;;;0.70;;
52266;SDS011;38223;50.940;4.034;2023-02-17T09:13:13;1.77;;;0.50;;
52266;SDS011;38223;50.940;4.034;2023-02-17T09:15:44;0.72;;;0.60;;
52266;SDS011;38223;50.940;4.034;2023-02-17T09:18:14;1.87;;;0.50;;
52266;SDS011;38223;50.940;4.034;2023-02-17T09:20:49;1.45;;;0.47;;
52266;SDS011;38223;50.940;4.034;2023-02-17T09:23:24;2.55;;;0.70;;
52266;SDS011;38223;50.940;4.034;2023-02-17T09:26:04;1.72;;;0.57;;
52266;SDS011;38223;50.940;4.034;2023-02-17T09:28:32;0.50;;;0.50;;
52266;SDS011;38223;50.940;4.034;2023-02-17T09:31:11;1.90;;;0.67;;
52266;SDS011;38223;50.940;4.034;2023-02-17T09:33:42;1.00;;;0.60;;
52266;SDS011;38223;50.940;4.034;2023-02-17T09:36:13;5.33;;;1.00;;
52266;SDS011;38223;50.940;4.034;2023-02-17T09:38:48;3.42;;;0.82;;
52266;SDS011;38223;50.940;4.034;2023-02-17T09:41:33;5.37;;;0.95;;
52266;SDS011;38223;50.940;4.034;2023-02-17T09:43:58;1.52;;;0.50;;
52266;SDS011;38223;50.940;4.034;2023-02-17T09:46:40;1.27;;;0.62;;
52266;SDS011;38223;50.940;4.034;2023-02-17T09:49:38;1.67;;;0.62;;
52266;SDS011;38223;50.940;4.034;2023-02-17T09:52:14;3.52;;;0.80;;
52266;SDS011;38223;50.940;4.034;2023-02-17T09:55:15;1.82;;;0.75;;
52266;SDS011;38223;50.940;4.034;2023-02-17T10:01:15;1.10;;;0.53;;
52266;SDS011;38223;50.940;4.034;2023-02-17T10:06:03;2.47;;;0.60;;
52266;SDS011;38223;50.940;4.034;2023-02-17T10:08:37;1.30;;;0.60;;
52266;SDS011;38223;50.940;4.034;2023-02-17T10:11:13;2.42;;;0.50;;
52266;SDS011;38223;50.940;4.034;2023-02-17T10:14:11;0.85;;;0.50;;
52266;SDS011;38223;50.940;4.034;2023-02-17T10:16:44;2.35;;;0.53;;
52266;SDS011;38223;50.940;4.034;2023-02-17T10:19:24;0.75;;;0.50;;
52266;SDS011;38223;50.940;4.034;2023-02-17T10:22:15;3.55;;;0.60;;
52266;SDS011;38223;50.940;4.034;2023-02-17T10:24:27;2.15;;;0.50;;
52266;SDS011;38223;50.940;4.034;2023-02-17T10:29:40;1.35;;;0.60;;
52266;SDS011;38223;50.940;4.034;2023-02-17T10:32:27;4.35;;;0.70;;
52266;SDS011;38223;50.940;4.034;2023-02-17T10:35:17;2.75;;;0.60;;
52266;SDS011;38223;50.940;4.034;2023-02-17T10:37:55;6.85;;;0.68;;
52266;SDS011;38223;50.940;4.034;2023-02-17T10:40:33;5.50;;;0.50;;
52266;SDS011;38223;50.940;4.034;2023-02-17T10:43:07;2.33;;;0.62;;
52266;SDS011;38223;50.940;4.034;2023-02-17T10:45:43;3.70;;;0.78;;
52266;SDS011;38223;50.940;4.034;2023-02-17T10:48:32;6.30;;;1.00;;
52266;SDS011;38223;50.940;4.034;2023-02-17T10:51:24;5.33;;;0.70;;
52266;SDS011;38223;50.940;4.034;2023-02-17T10:53:59;4.28;;;0.60;;
52266;SDS011;38223;50.940;4.034;2023-02-17T10:56:27;3.77;;;0.70;;
52266;SDS011;38223;50.940;4.034;2023-02-17T10:59:10;3.45;;;0.60;;
52266;SDS011;38223;50.940;4.034;2023-02-17T11:01:47;6.00;;;0.98;;
52266;SDS011;38223;50.940;4.034;2023-02-17T11:04:20;2.45;;;0.62;;
52266;SDS011;38223;50.940;4.034;2023-02-17T11:06:54;3.77;;;0.70;;
52266;SDS011;38223;50.940;4.034;2023-02-17T11:09:29;3.05;;;1.05;;
52266;SDS011;38223;50.940;4.034;2023-02-17T11:12:05;1.20;;;0.70;;
52266;SDS011;38223;50.940;4.034;2023-02-17T11:14:32;1.02;;;0.50;;
52266;SDS011;38223;50.940;4.034;2023-02-17T11:20:05;2.90;;;0.78;;
52266;SDS011;38223;50.940;4.034;2023-02-17T11:22:45;2.40;;;0.78;;
52266;SDS011;38223;50.940;4.034;2023-02-17T11:25:30;2.98;;;0.70;;
52266;SDS011;38223;50.940;4.034;2023-02-17T11:28:02;1.98;;;0.40;;
52266;SDS011;38223;50.940;4.034;2023-02-17T11:30:35;0.60;;;0.33;;
52266;SDS011;38223;50.940;4.034;2023-02-17T11:33:12;1.90;;;0.60;;
52266;SDS011;38223;50.940;4.034;2023-02-17T11:35:46;1.92;;;0.50;;
52266;SDS011;38223;50.940;4.034;2023-02-17T11:38:23;1.17;;;0.50;;
52266;SDS011;38223;50.940;4.034;2023-02-17T11:43:31;5.15;;;0.82;;
52266;SDS011;38223;50.940;4.034;2023-02-17T11:54:31;2.10;;;0.90;;
52266;SDS011;38223;50.940;4.034;2023-02-17T11:57:09;2.08;;;0.62;;
52266;SDS011;38223;50.940;4.034;2023-02-17T12:08:32;5.25;;;1.05;;
52266;SDS011;38223;50.940;4.034;2023-02-17T12:14:31;2.00;;;0.90;;
52266;SDS011;38223;50.940;4.034;2023-02-17T12:20:02;5.83;;;1.17;;
52266;SDS011;38223;50.940;4.034;2023-02-17T12:25:27;2.08;;;0.40;;
52266;SDS011;38223;50.940;4.034;2023-02-17T12:30:49;3.50;;;0.60;;
52266;SDS011;38223;50.940;4.034;2023-02-17T12:36:16;1.53;;;0.80;;
52266;SDS011;38223;50.940;4.034;2023-02-17T12:38:52;6.97;;;1.00;;
52266;SDS011;38223;50.940;4.034;2023-02-17T12:41:35;1.22;;;0.45;;
52266;SDS011;38223;50.940;4.034;2023-02-17T12:44:00;0.70;;;0.33;;
52266;SDS011;38223;50.940;4.034;2023-02-17T12:46:48;2.10;;;0.55;;
52266;SDS011;38223;50.940;4.034;2023-02-17T12:49:39;3.13;;;0.60;;
52266;SDS011;38223;50.940;4.034;2023-02-17T12:52:28;2.25;;;0.70;;
52266;SDS011;38223;50.940;4.034;2023-02-17T12:55:18;0.95;;;0.50;;
52266;SDS011;38223;50.940;4.034;2023-02-17T12:57:47;2.00;;;0.62;;
52266;SDS011;38223;50.940;4.034;2023-02-17T13:00:35;2.42;;;0.62;;
52266;SDS011;38223;50.940;4.034;2023-02-17T13:03:05;2.05;;;0.70;;
52266;SDS011;38223;50.940;4.034;2023-02-17T13:05:51;0.98;;;0.50;;
52266;SDS011;38223;50.940;4.034;2023-02-17T13:08:37;1.77;;;0.65;;
52266;SDS011;38223;50.940;4.034;2023-02-17T13:11:12;2.12;;;0.50;;
52266;SDS011;38223;50.940;4.034;2023-02-17T13:13:44;1.47;;;0.60;;
52266;SDS011;38223;50.940;4.034;2023-02-17T13:16:16;5.97;;;0.50;;
52266;SDS011;38223;50.940;4.034;2023-02-17T13:18:47;1.87;;;0.72;;
52266;SDS011;38223;50.940;4.034;2023-02-17T13:26:31;1.95;;;0.90;;
52266;SDS011;38223;50.940;4.034;2023-02-17T13:29:17;3.50;;;0.70;;
52266;SDS011;38223;50.940;4.034;2023-02-17T13:32:00;3.58;;;0.65;;
52266;SDS011;38223;50.940;4.034;2023-02-17T13:34:38;2.67;;;0.50;;
52266;SDS011;38223;50.940;4.034;2023-02-17T13:37:15;2.47;;;0.55;;
52266;SDS011;38223;50.940;4.034;2023-02-17T13:39:53;2.00;;;0.78;;
52266;SDS011;38223;50.940;4.034;2023-02-17T13:42:30;2.40;;;0.60;;
52266;SDS011;38223;50.940;4.034;2023-02-17T13:44:58;0.72;;;0.47;;
52266;SDS011;38223;50.940;4.034;2023-02-17T13:47:28;1.10;;;0.55;;
52266;SDS011;38223;50.940;4.034;2023-02-17T13:49:57;1.87;;;0.50;;
52266;SDS011;38223;50.940;4.034;2023-02-17T13:52:26;2.75;;;0.70;;
52266;SDS011;38223;50.940;4.034;2023-02-17T13:55:02;7.03;;;0.62;;
52266;SDS011;38223;50.940;4.034;2023-02-17T13:57:34;3.02;;;0.45;;
52266;SDS011;38223;50.940;4.034;2023-02-17T14:02:47;5.12;;;0.60;;
52266;SDS011;38223;50.940;4.034;2023-02-17T14:05:25;3.10;;;0.50;;
52266;SDS011;38223;50.940;4.034;2023-02-17T14:07:58;3.20;;;0.55;;
52266;SDS011;38223;50.940;4.034;2023-02-17T14:10:34;1.57;;;0.78;;
52266;SDS011;38223;50.940;4.034;2023-02-17T14:13:02;3.92;;;0.72;;
52266;SDS011;38223;50.940;4.034;2023-02-17T14:15:30;2.77;;;0.60;;
52266;SDS011;38223;50.940;4.034;2023-02-17T14:17:58;2.20;;;0.62;;
52266;SDS011;38223;50.940;4.034;2023-02-17T14:20:32;4.30;;;1.32;;
52266;SDS011;38223;50.940;4.034;2023-02-17T14:25:42;2.12;;;0.50;;
52266;SDS011;38223;50.940;4.034;2023-02-17T14:30:50;8.78;;;0.90;;
52266;SDS011;38223;50.940;4.034;2023-02-17T14:33:24;5.60;;;0.98;;
52266;SDS011;38223;50.940;4.034;2023-02-17T14:35:58;39.30;;;2.02;;
52266;SDS011;38223;50.940;4.034;2023-02-17T14:38:39;31.30;;;1.90;;
52266;SDS011;38223;50.940;4.034;2023-02-17T14:41:12;3.92;;;0.68;;
52266;SDS011;38223;50.940;4.034;2023-02-17T14:43:47;74.45;;;3.90;;
52266;SDS011;38223;50.940;4.034;2023-02-17T14:46:14;7.20;;;1.40;;
52266;SDS011;38223;50.940;4.034;2023-02-17T14:48:45;12.40;;;1.87;;
52266;SDS011;38223;50.940;4.034;2023-02-17T14:51:21;2.12;;;1.05;;
52266;SDS011;38223;50.940;4.034;2023-02-17T14:53:54;1.80;;;1.10;;
52266;SDS011;38223;50.940;4.034;2023-02-17T14:56:29;2.47;;;1.10;;
52266;SDS011;38223;50.940;4.034;2023-02-17T14:58:59;5.45;;;1.30;;
52266;SDS011;38223;50.940;4.034;2023-02-17T15:01:29;3.17;;;1.30;;
52266;SDS011;38223;50.940;4.034;2023-02-17T15:04:01;3.47;;;1.62;;
52266;SDS011;38223;50.940;4.034;2023-02-17T15:06:40;1.92;;;1.25;;
52266;SDS011;38223;50.940;4.034;2023-02-17T15:09:28;1.92;;;1.07;;
52266;SDS011;38223;50.940;4.034;2023-02-17T15:12:00;1.98;;;1.00;;
52266;SDS011;38223;50.940;4.034;2023-02-17T15:14:35;2.65;;;1.35;;
52266;SDS011;38223;50.940;4.034;2023-02-17T15:17:06;5.28;;;1.45;;
52266;SDS011;38223;50.940;4.034;2023-02-17T15:19:39;3.20;;;1.30;;
52266;SDS011;38223;50.940;4.034;2023-02-17T15:22:12;6.42;;;1.60;;
52266;SDS011;38223;50.940;4.034;2023-02-17T15:24:40;3.25;;;1.45;;
52266;SDS011;38223;50.940;4.034;2023-02-17T15:27:28;2.83;;;1.30;;
52266;SDS011;38223;50.940;4.034;2023-02-17T15:29:56;2.35;;;1.40;;
52266;SDS011;38223;50.940;4.034;2023-02-17T15:32:24;4.17;;;1.20;;
52266;SDS011;38223;50.940;4.034;2023-02-17T15:34:53;2.35;;;1.40;;
52266;SDS011;38223;50.940;4.034;2023-02-17T15:37:26;37.88;;;3.35;;
52266;SDS011;38223;50.940;4.034;2023-02-17T15:39:58;2.75;;;1.27;;
52266;SDS011;38223;50.940;4.034;2023-02-17T15:42:28;7.80;;;1.32;;
52266;SDS011;38223;50.940;4.034;2023-02-17T15:44:58;13.25;;;1.62;;
52266;SDS011;38223;50.940;4.034;2023-02-17T15:47:31;9.38;;;1.82;;
52266;SDS011;38223;50.940;4.034;2023-02-17T15:50:04;22.50;;;2.80;;
52266;SDS011;38223;50.940;4.034;2023-02-17T15:52:37;2.35;;;1.12;;
52266;SDS011;38223;50.940;4.034;2023-02-17T15:55:11;2.40;;;1.10;;
52266;SDS011;38223;50.940;4.034;2023-02-17T15:57:47;3.00;;;1.02;;
52266;SDS011;38223;50.940;4.034;2023-02-17T16:00:25;6.80;;;1.87;;
52266;SDS011;38223;50.940;4.034;2023-02-17T16:02:59;2.62;;;1.52;;
52266;SDS011;38223;50.940;4.034;2023-02-17T16:05:32;2.30;;;1.30;;
52266;SDS011;38223;50.940;4.034;2023-02-17T16:08:06;3.27;;;1.60;;
52266;SDS011;38223;50.940;4.034;2023-02-17T16:10:39;3.20;;;1.45;;
52266;SDS011;38223;50.940;4.034;2023-02-17T16:13:11;3.05;;;1.42;;
52266;SDS011;38223;50.940;4.034;2023-02-17T16:15:46;4.17;;;2.30;;
52266;SDS011;38223;50.940;4.034;2023-02-17T16:18:22;4.47;;;1.72;;
52266;SDS011;38223;50.940;4.034;2023-02-17T16:20:52;2.83;;;1.62;;
52266;SDS011;38223;50.940;4.034;2023-02-17T16:23:26;2.87;;;1.80;;
52266;SDS011;38223;50.940;4.034;2023-02-17T16:25:56;4.37;;;2.17;;
52266;SDS011;38223;50.940;4.034;2023-02-17T16:28:28;3.10;;;2.02;;
52266;SDS011;38223;50.940;4.034;2023-02-17T16:31:03;5.22;;;1.87;;
52266;SDS011;38223;50.940;4.034;2023-02-17T16:33:34;4.25;;;2.47;;
52266;SDS011;38223;50.940;4.034;2023-02-17T16:36:15;9.48;;;2.77;;
52266;SDS011;38223;50.940;4.034;2023-02-17T16:38:48;7.05;;;2.30;;
52266;SDS011;38223;50.940;4.034;2023-02-17T16:41:17;5.45;;;3.02;;
52266;SDS011;38223;50.940;4.034;2023-02-17T16:43:50;7.17;;;2.70;;
52266;SDS011;38223;50.940;4.034;2023-02-17T16:46:21;5.03;;;3.30;;